Wynne, AR

10:21 AM CST on February 10, 2016 (GMT -0600)
South Edmonds - MacTown | | Change Station
CLOSE
Current Station
Personal Weather Station
Location: McCrory, AR
Elevation: 207 ft
Nearby Weather Stations

Elev 207 ft 35.27 °N, 91.20 °W | Updated 10 seconds ago

Clear
Clear
34.5 °F
Feels Like 34 °F
N
0.9
Wind Variable Wind from NNW
Gusts 2.5 mph

Today
High -- | Low -- °F
--% Chance of Precip.
Yesterday
High -- | Low -- °F
Precip. -- in
Pressure 30.31 in
Visibility 10.0 miles
Clouds Clear
Windchill 34 °F
Dew Point 6 °F
Humidity 30%
Rainfall 0.00 in
Snow Depth Not available.
6:54 AM 5:40 PM
Waxing Crescent, 6% visible
METAR KAWM 101553Z AUTO VRB05KT 10SM CLR M02/M12 A3030 RMK AO2 SLP263 T10171117 $
Pressure 30.31 in
Visibility 10.0 miles
Clouds Clear
Windchill 34 °F
Dew Point 6 °F
Humidity 30%
Rainfall 0.00 in
Snow Depth Not available.
6:54 AM 5:40 PM
Waxing Crescent, 6% visible
METAR KAWM 101553Z AUTO VRB05KT 10SM CLR M02/M12 A3030 RMK AO2 SLP263 T10171117 $

10-Day Weather Forecast

Almanac

Astronomy

Feb. 10, 2016 Rise Set
Actual Time
Civil Twilight
Nautical Twilight
Astronomical Twilight
Moon
Length of Visible Light
Length of Day
Tomorrow will be .
, % of the Moon is Illuminated

Today's Extremes

State Highs State Lows

Community

WunderPhotos

Upload Photos

1,891,881 photos uploaded!

WunderBlog® & News

Nearby

Air Quality

  Air Quality AQ Index Pollutant
Not available.

Snow Depth

Station Depth Elevation

Earthquake Activity

City Distance Mag. Time & Date
Minimum magnitude displayed is 2.5.

Coastal Water Temperatures

Place Temperature

Stations

Nearby Weather Stations

Station Location Temp. Windchill Dew Point Humidity Wind Precip. Elev Updated Type
                   

Watches & Warnings

There are currently no watches in effect.